0432 UTC 03 September 2014 found at http://aviationweather.gov/adds/metars/
 
METAR text: KAFF 030358Z AUTO 12005KT 10SM CLR 19/08 A3011 RMK AO2 SLP115 T01880080
Conditions at: KAFF (USAF ACADEMY/COS, CO, US) observed 0358 UTC 03 September 2014
Temperature: 18.8°C (66°F)
Dewpoint: 8.0°C (46°F) [RH = 49%]
Pressure (altimeter): 30.11 inches Hg (1019.7 mb[Sea-level pressure: 1011.5 mb]
Winds: from the ESE (120 degrees) at 6 MPH (5 knots; 2.6 m/s)
Visibility: 10 or more miles (16+ km)
Ceiling: at least 12,000 feet AGL
Clouds: sky clear below 12,000 feet AGL
Weather: automated observation with no human augmentation;
there may or may not be significant weather present at this time

METAR text: KAFF 030258Z AUTO 16008KT 10SM CLR 20/09 A3011 RMK AO2 SLP115 T01960086 53010
Conditions at: KAFF (USAF ACADEMY/COS, CO, US) observed 0258 UTC 03 September 2014
Temperature: 19.6°C (67°F)
Dewpoint: 8.6°C (47°F) [RH = 49%]
Pressure (altimeter): 30.11 inches Hg (1019.7 mb[Sea-level pressure: 1011.5 mb]
Winds: from the SSE (160 degrees) at 9 MPH (8 knots; 4.2 m/s)
Visibility: 10 or more miles (16+ km)
Ceiling: at least 12,000 feet AGL
Clouds: sky clear below 12,000 feet AGL
Weather: automated observation with no human augmentation;
there may or may not be significant weather present at this time

METAR text: KAFF 030158Z AUTO 19005KT 10SM CLR 21/09 A3010 RMK AO2 SLP121 T02100093
Conditions at: KAFF (USAF ACADEMY/COS, CO, US) observed 0158 UTC 03 September 2014
Temperature: 21.0°C (70°F)
Dewpoint: 9.3°C (49°F) [RH = 47%]
Pressure (altimeter): 30.10 inches Hg (1019.4 mb[Sea-level pressure: 1012.1 mb]
Winds: from the S (190 degrees) at 6 MPH (5 knots; 2.6 m/s)
Visibility: 10 or more miles (16+ km)
Ceiling: at least 12,000 feet AGL
Clouds: sky clear below 12,000 feet AGL
Weather: automated observation with no human augmentation;
there may or may not be significant weather present at this time

METAR text: KAFF 030058Z AUTO 12010KT 10SM CLR 24/10 A3007 RMK AO2 SLP116 T02360095
Conditions at: KAFF (USAF ACADEMY/COS, CO, US) observed 0058 UTC 03 September 2014
Temperature: 23.6°C (74°F)
Dewpoint: 9.5°C (49°F) [RH = 41%]
Pressure (altimeter): 30.07 inches Hg (1018.4 mb[Sea-level pressure: 1011.6 mb]
Winds: from the ESE (120 degrees) at 12 MPH (10 knots; 5.2 m/s)
Visibility: 10 or more miles (16+ km)
Ceiling: at least 12,000 feet AGL
Clouds: sky clear below 12,000 feet AGL
Weather: automated observation with no human augmentation;
there may or may not be significant weather present at this time

METAR text: KAFF 022358Z AUTO 12008KT 10SM CLR 25/10 A3007 RMK AO2 SLP111 T02490104 10256 20212 57011
Conditions at: KAFF (USAF ACADEMY/COS, CO, US) observed 2358 UTC 02 September 2014
Temperature: 24.9°C (77°F)
Dewpoint: 10.4°C (51°F) [RH = 40%]
Pressure (altimeter): 30.07 inches Hg (1018.4 mb[Sea-level pressure: 1011.1 mb]
Winds: from the ESE (120 degrees) at 9 MPH (8 knots; 4.2 m/s)
Visibility: 10 or more miles (16+ km)
Ceiling: at least 12,000 feet AGL
Clouds: sky clear below 12,000 feet AGL
Weather: automated observation with no human augmentation;
there may or may not be significant weather present at this time

METAR text: KAFF 022258Z 12010KT 10SM CLR 26/11 A3008 RMK AO2A SLP109 T02550105
Conditions at: KAFF (USAF ACADEMY/COS, CO, US) observed 2258 UTC 02 September 2014
Temperature: 25.5°C (78°F)
Dewpoint: 10.5°C (51°F) [RH = 39%]
Pressure (altimeter): 30.08 inches Hg (1018.7 mb[Sea-level pressure: 1010.9 mb]
Winds: from the ESE (120 degrees) at 12 MPH (10 knots; 5.2 m/s)
Visibility: 10 or more miles (16+ km)
Ceiling: at least 12,000 feet AGL
Clouds: sky clear below 12,000 feet AGL
Weather: no significant weather observed at this time

METAR text: KAFF 022215Z 15012G15KT 10SM CLR 26/11 A3010 RMK AO2A WSHFT 13
Conditions at: KAFF (USAF ACADEMY/COS, CO, US) observed 2215 UTC 02 September 2014
Temperature: 26.0°C (79°F)
Dewpoint: 11.0°C (52°F) [RH = 39%]
Pressure (altimeter): 30.10 inches Hg (1019.4 mb)
Winds: from the SSE (150 degrees) at 14 MPH (12 knots; 6.2 m/sgusting to 17 MPH (15 knots; 7.8 m/s)
Visibility: 10 or more miles (16+ km)
Ceiling: at least 12,000 feet AGL
Clouds: sky clear below 12,000 feet AGL
Weather: no significant weather observed at this time

METAR text: KAFF 022158Z 13008KT 10SM CLR 25/11 A3010 RMK AO2A SLP111 T02540113
Conditions at: KAFF (USAF ACADEMY/COS, CO, US) observed 2158 UTC 02 September 2014
Temperature: 25.4°C (78°F)
Dewpoint: 11.3°C (52°F) [RH = 41%]
Pressure (altimeter): 30.10 inches Hg (1019.4 mb[Sea-level pressure: 1011.1 mb]
Winds: from the SE (130 degrees) at 9 MPH (8 knots; 4.2 m/s)
Visibility: 10 or more miles (16+ km)
Ceiling: at least 12,000 feet AGL
Clouds: sky clear below 12,000 feet AGL
Weather: no significant weather observed at this time

METAR text: KAFF 022058Z 13009KT 10SM CLR 25/11 A3011 RMK AO2A SLP115 T02500111 57020
Conditions at: KAFF (USAF ACADEMY/COS, CO, US) observed 2058 UTC 02 September 2014
Temperature: 25.0°C (77°F)
Dewpoint: 11.1°C (52°F) [RH = 42%]
Pressure (altimeter): 30.11 inches Hg (1019.7 mb[Sea-level pressure: 1011.5 mb]
Winds: from the SE (130 degrees) at 10 MPH (9 knots; 4.7 m/s)
Visibility: 10 or more miles (16+ km)
Ceiling: at least 12,000 feet AGL
Clouds: sky clear below 12,000 feet AGL
Weather: no significant weather observed at this time

METAR text: KAFF 021958Z 13009KT 10SM CLR 24/12 A3014 RMK AO2A SLP130 T02430116
Conditions at: KAFF (USAF ACADEMY/COS, CO, US) observed 1958 UTC 02 September 2014
Temperature: 24.3°C (76°F)
Dewpoint: 11.6°C (53°F) [RH = 45%]
Pressure (altimeter): 30.14 inches Hg (1020.7 mb[Sea-level pressure: 1013.0 mb]
Winds: from the SE (130 degrees) at 10 MPH (9 knots; 4.7 m/s)
Visibility: 10 or more miles (16+ km)
Ceiling: at least 12,000 feet AGL
Clouds: sky clear below 12,000 feet AGL
Weather: no significant weather observed at this time

METAR text: KAFF 021858Z AUTO 15013KT 10SM CLR 22/12 A3016 RMK AO2 SLP142 T02240122
Conditions at: KAFF (USAF ACADEMY/COS, CO, US) observed 1858 UTC 02 September 2014
Temperature: 22.4°C (72°F)
Dewpoint: 12.2°C (54°F) [RH = 52%]
Pressure (altimeter): 30.16 inches Hg (1021.4 mb[Sea-level pressure: 1014.2 mb]
Winds: from the SSE (150 degrees) at 15 MPH (13 knots; 6.8 m/s)
Visibility: 10 or more miles (16+ km)
Ceiling: at least 12,000 feet AGL
Clouds: sky clear below 12,000 feet AGL
Weather: automated observation with no human augmentation;
there may or may not be significant weather present at this time

METAR text: KAFF 021758Z AUTO 15007KT 10SM CLR 21/13 A3019 RMK AO2 SLP153 T02090127 10209 20057 58008
Conditions at: KAFF (USAF ACADEMY/COS, CO, US) observed 1758 UTC 02 September 2014
Temperature: 20.9°C (70°F)
Dewpoint: 12.7°C (55°F) [RH = 59%]
Pressure (altimeter): 30.19 inches Hg (1022.4 mb[Sea-level pressure: 1015.3 mb]
Winds: from the SSE (150 degrees) at 8 MPH (7 knots; 3.6 m/s)
Visibility: 10 or more miles (16+ km)
Ceiling: at least 12,000 feet AGL
Clouds: sky clear below 12,000 feet AGL
Weather: automated observation with no human augmentation;
there may or may not be significant weather present at this time

METAR text: KAFF 021658Z 18013KT 10SM SCT022 19/12 A3022 RMK AO2A SLP169 T01880119
Conditions at: KAFF (USAF ACADEMY/COS, CO, US) observed 1658 UTC 02 September 2014
Temperature: 18.8°C (66°F)
Dewpoint: 11.9°C (53°F) [RH = 64%]
Pressure (altimeter): 30.22 inches Hg (1023.5 mb[Sea-level pressure: 1016.9 mb]
Winds: from the S (180 degrees) at 15 MPH (13 knots; 6.8 m/s)
Visibility: 10 or more miles (16+ km)
Ceiling: at least 12,000 feet AGL
Clouds: scattered clouds at 2200 feet AGL
Weather: no significant weather observed at this time

METAR text: KAFF 021655Z 17013KT 10SM SCT022 19/12 A3021 RMK AO2A
Conditions at: KAFF (USAF ACADEMY/COS, CO, US) observed 1655 UTC 02 September 2014
Temperature: 19.0°C (66°F)
Dewpoint: 12.0°C (54°F) [RH = 64%]
Pressure (altimeter): 30.21 inches Hg (1023.1 mb)
Winds: from the S (170 degrees) at 15 MPH (13 knots; 6.8 m/s)
Visibility: 10 or more miles (16+ km)
Ceiling: at least 12,000 feet AGL
Clouds: scattered clouds at 2200 feet AGL
Weather: no significant weather observed at this time

METAR text: KAFF 021558Z 15007KT 10SM BKN020 18/12 A3022 RMK AO2A SLP169 T01750119
Conditions at: KAFF (USAF ACADEMY/COS, CO, US) observed 1558 UTC 02 September 2014
Temperature: 17.5°C (64°F)
Dewpoint: 11.9°C (53°F) [RH = 70%]
Pressure (altimeter): 30.22 inches Hg (1023.5 mb[Sea-level pressure: 1016.9 mb]
Winds: from the SSE (150 degrees) at 8 MPH (7 knots; 3.6 m/s)
Visibility: 10 or more miles (16+ km)
Ceiling: 2000 feet AGL
Clouds: broken clouds at 2000 feet AGL
Weather: no significant weather observed at this time

METAR text: KAFF 021551Z 18008KT 10SM BKN020 18/12 A3022 RMK AO2A
Conditions at: KAFF (USAF ACADEMY/COS, CO, US) observed 1551 UTC 02 September 2014
Temperature: 18.0°C (64°F)
Dewpoint: 12.0°C (54°F) [RH = 68%]
Pressure (altimeter): 30.22 inches Hg (1023.5 mb)
Winds: from the S (180 degrees) at 9 MPH (8 knots; 4.2 m/s)
Visibility: 10 or more miles (16+ km)
Ceiling: 2000 feet AGL
Clouds: broken clouds at 2000 feet AGL
Weather: no significant weather observed at this time

METAR text: KAFF 021458Z AUTO 18004KT 10SM CLR 16/09 A3022 RMK AO2 SLP164 T01590094 51002
Conditions at: KAFF (USAF ACADEMY/COS, CO, US) observed 1458 UTC 02 September 2014
Temperature: 15.9°C (61°F)
Dewpoint: 9.4°C (49°F) [RH = 65%]
Pressure (altimeter): 30.22 inches Hg (1023.5 mb[Sea-level pressure: 1016.4 mb]
Winds: from the S (180 degrees) at 5 MPH (4 knots; 2.1 m/s)
Visibility: 10 or more miles (16+ km)
Ceiling: at least 12,000 feet AGL
Clouds: sky clear below 12,000 feet AGL
Weather: automated observation with no human augmentation;
there may or may not be significant weather present at this time

METAR text: KAFF 021358Z AUTO 36006KT 10SM CLR 10/06 A3022 RMK AO2 SLP169 T01010061
Conditions at: KAFF (USAF ACADEMY/COS, CO, US) observed 1358 UTC 02 September 2014
Temperature: 10.1°C (50°F)
Dewpoint: 6.1°C (43°F) [RH = 76%]
Pressure (altimeter): 30.22 inches Hg (1023.5 mb[Sea-level pressure: 1016.9 mb]
Winds: from the N (360 degrees) at 7 MPH (6 knots; 3.1 m/s)
Visibility: 10 or more miles (16+ km)
Ceiling: at least 12,000 feet AGL
Clouds: sky clear below 12,000 feet AGL
Weather: automated observation with no human augmentation;
there may or may not be significant weather present at this time

METAR text: KAFF 021258Z AUTO 35008KT 10SM CLR 06/04 A3021 RMK AO2 SLP170 T00590044
Conditions at: KAFF (USAF ACADEMY/COS, CO, US) observed 1258 UTC 02 September 2014
Temperature: 5.9°C (43°F)
Dewpoint: 4.4°C (40°F) [RH = 90%]
Pressure (altimeter): 30.21 inches Hg (1023.1 mb[Sea-level pressure: 1017.0 mb]
Winds: from the N (350 degrees) at 9 MPH (8 knots; 4.2 m/s)
Visibility: 10 or more miles (16+ km)
Ceiling: at least 12,000 feet AGL
Clouds: sky clear below 12,000 feet AGL
Weather: automated observation with no human augmentation;
there may or may not be significant weather present at this time

METAR text: KAFF 021158Z AUTO 36007KT 10SM CLR 07/05 A3021 RMK AO2 SLP165 T00650046 10105 20065 53001
Conditions at: KAFF (USAF ACADEMY/COS, CO, US) observed 1158 UTC 02 September 2014
Temperature: 6.5°C (44°F)
Dewpoint: 4.6°C (40°F) [RH = 88%]
Pressure (altimeter): 30.21 inches Hg (1023.1 mb[Sea-level pressure: 1016.5 mb]
Winds: from the N (360 degrees) at 8 MPH (7 knots; 3.6 m/s)
Visibility: 10 or more miles (16+ km)
Ceiling: at least 12,000 feet AGL
Clouds: sky clear below 12,000 feet AGL
Weather: automated observation with no human augmentation;
there may or may not be significant weather present at this time

METAR text: KAFF 021058Z AUTO 36005KT 10SM CLR 08/06 A3020 RMK AO2 SLP156 T00830055
Conditions at: KAFF (USAF ACADEMY/COS, CO, US) observed 1058 UTC 02 September 2014
Temperature: 8.3°C (47°F)
Dewpoint: 5.5°C (42°F) [RH = 82%]
Pressure (altimeter): 30.20 inches Hg (1022.8 mb[Sea-level pressure: 1015.6 mb]
Winds: from the N (360 degrees) at 6 MPH (5 knots; 2.6 m/s)
Visibility: 10 or more miles (16+ km)
Ceiling: at least 12,000 feet AGL
Clouds: sky clear below 12,000 feet AGL
Weather: automated observation with no human augmentation;
there may or may not be significant weather present at this time

METAR text: KAFF 020958Z AUTO 34009KT 10SM CLR 09/06 A3020 RMK AO2 SLP156 T00930058
Conditions at: KAFF (USAF ACADEMY/COS, CO, US) observed 0958 UTC 02 September 2014
Temperature: 9.3°C (49°F)
Dewpoint: 5.8°C (42°F) [RH = 79%]
Pressure (altimeter): 30.20 inches Hg (1022.8 mb[Sea-level pressure: 1015.6 mb]
Winds: from the NNW (340 degrees) at 10 MPH (9 knots; 4.7 m/s)
Visibility: 10 or more miles (16+ km)
Ceiling: at least 12,000 feet AGL
Clouds: sky clear below 12,000 feet AGL
Weather: automated observation with no human augmentation;
there may or may not be significant weather present at this time

METAR text: KAFF 020858Z AUTO 35005KT 10SM CLR 10/06 A3021 RMK AO2 SLP160 T00960062 53000
Conditions at: KAFF (USAF ACADEMY/COS, CO, US) observed 0858 UTC 02 September 2014
Temperature: 9.6°C (49°F)
Dewpoint: 6.2°C (43°F) [RH = 79%]
Pressure (altimeter): 30.21 inches Hg (1023.1 mb[Sea-level pressure: 1016.0 mb]
Winds: from the N (350 degrees) at 6 MPH (5 knots; 2.6 m/s)
Visibility: 10 or more miles (16+ km)
Ceiling: at least 12,000 feet AGL
Clouds: sky clear below 12,000 feet AGL
Weather: automated observation with no human augmentation;
there may or may not be significant weather present at this time

METAR text: KAFF 020758Z AUTO 36005KT 10SM CLR 09/07 A3020 RMK AO2 SLP156 T00900066
Conditions at: KAFF (USAF ACADEMY/COS, CO, US) observed 0758 UTC 02 September 2014
Temperature: 9.0°C (48°F)
Dewpoint: 6.6°C (44°F) [RH = 85%]
Pressure (altimeter): 30.20 inches Hg (1022.8 mb[Sea-level pressure: 1015.6 mb]
Winds: from the N (360 degrees) at 6 MPH (5 knots; 2.6 m/s)
Visibility: 10 or more miles (16+ km)
Ceiling: at least 12,000 feet AGL
Clouds: sky clear below 12,000 feet AGL
Weather: automated observation with no human augmentation;
there may or may not be significant weather present at this time

METAR text: KAFF 020658Z AUTO 34007KT 10SM CLR 10/07 A3020 RMK AO2 SLP156 T01000071 402400074
Conditions at: KAFF (USAF ACADEMY/COS, CO, US) observed 0658 UTC 02 September 2014
Temperature: 10.0°C (50°F)
Dewpoint: 7.1°C (45°F) [RH = 82%]
Pressure (altimeter): 30.20 inches Hg (1022.8 mb[Sea-level pressure: 1015.6 mb]
Winds: from the NNW (340 degrees) at 8 MPH (7 knots; 3.6 m/s)
Visibility: 10 or more miles (16+ km)
Ceiling: at least 12,000 feet AGL
Clouds: sky clear below 12,000 feet AGL
Weather: automated observation with no human augmentation;
there may or may not be significant weather present at this time

METAR text: KAFF 020558Z AUTO 34006KT 10SM CLR 11/08 A3021 RMK AO2 SLP160 T01070077 10229 20103 51012
Conditions at: KAFF (USAF ACADEMY/COS, CO, US) observed 0558 UTC 02 September 2014
Temperature: 10.7°C (51°F)
Dewpoint: 7.7°C (46°F) [RH = 82%]
Pressure (altimeter): 30.21 inches Hg (1023.1 mb[Sea-level pressure: 1016.0 mb]
Winds: from the NNW (340 degrees) at 7 MPH (6 knots; 3.1 m/s)
Visibility: 10 or more miles (16+ km)
Ceiling: at least 12,000 feet AGL
Clouds: sky clear below 12,000 feet AGL
Weather: automated observation with no human augmentation;
there may or may not be significant weather present at this time

METAR text: KAFF 020458Z AUTO 34008KT 10SM CLR 11/08 A3020 RMK AO2 SLP162 T01140079
Conditions at: KAFF (USAF ACADEMY/COS, CO, US) observed 0458 UTC 02 September 2014
Temperature: 11.4°C (53°F)
Dewpoint: 7.9°C (46°F) [RH = 79%]
Pressure (altimeter): 30.20 inches Hg (1022.8 mb[Sea-level pressure: 1016.2 mb]
Winds: from the NNW (340 degrees) at 9 MPH (8 knots; 4.2 m/s)
Visibility: 10 or more miles (16+ km)
Ceiling: at least 12,000 feet AGL
Clouds: sky clear below 12,000 feet AGL
Weather: automated observation with no human augmentation;
there may or may not be significant weather present at this time

METAR text: KAFF 020358Z AUTO 34006KT 10SM CLR 13/09 A3019 RMK AO2 SLP158 T01300085
Conditions at: KAFF (USAF ACADEMY/COS, CO, US) observed 0358 UTC 02 September 2014
Temperature: 13.0°C (55°F)
Dewpoint: 8.5°C (47°F) [RH = 74%]
Pressure (altimeter): 30.19 inches Hg (1022.4 mb[Sea-level pressure: 1015.8 mb]
Winds: from the NNW (340 degrees) at 7 MPH (6 knots; 3.1 m/s)
Visibility: 10 or more miles (16+ km)
Ceiling: at least 12,000 feet AGL
Clouds: sky clear below 12,000 feet AGL
Weather: automated observation with no human augmentation;
there may or may not be significant weather present at this time

METAR text: KAFF 020258Z AUTO 35005KT 10SM CLR 16/09 A3016 RMK AO2 SLP142 T01580087 52026
Conditions at: KAFF (USAF ACADEMY/COS, CO, US) observed 0258 UTC 02 September 2014
Temperature: 15.8°C (60°F)
Dewpoint: 8.7°C (48°F) [RH = 63%]
Pressure (altimeter): 30.16 inches Hg (1021.4 mb[Sea-level pressure: 1014.2 mb]
Winds: from the N (350 degrees) at 6 MPH (5 knots; 2.6 m/s)
Visibility: 10 or more miles (16+ km)
Ceiling: at least 12,000 feet AGL
Clouds: sky clear below 12,000 feet AGL
Weather: automated observation with no human augmentation;
there may or may not be significant weather present at this time

METAR text: KAFF 020158Z AUTO 21005KT 10SM CLR 19/08 A3013 RMK AO2 SLP132 T01860077
Conditions at: KAFF (USAF ACADEMY/COS, CO, US) observed 0158 UTC 02 September 2014
Temperature: 18.6°C (65°F)
Dewpoint: 7.7°C (46°F) [RH = 49%]
Pressure (altimeter): 30.13 inches Hg (1020.4 mb[Sea-level pressure: 1013.2 mb]
Winds: from the SSW (210 degrees) at 6 MPH (5 knots; 2.6 m/s)
Visibility: 10 or more miles (16+ km)
Ceiling: at least 12,000 feet AGL
Clouds: sky clear below 12,000 feet AGL
Weather: automated observation with no human augmentation;
there may or may not be significant weather present at this time

METAR text: KAFF 020058Z AUTO 11008KT 10SM CLR 21/08 A3009 RMK AO2 SLP128 T02130081
Conditions at: KAFF (USAF ACADEMY/COS, CO, US) observed 0058 UTC 02 September 2014
Temperature: 21.3°C (70°F)
Dewpoint: 8.1°C (47°F) [RH = 43%]
Pressure (altimeter): 30.09 inches Hg (1019.0 mb[Sea-level pressure: 1012.8 mb]
Winds: from the ESE (110 degrees) at 9 MPH (8 knots; 4.2 m/s)
Visibility: 10 or more miles (16+ km)
Ceiling: at least 12,000 feet AGL
Clouds: sky clear below 12,000 feet AGL
Weather: automated observation with no human augmentation;
there may or may not be significant weather present at this time

METAR text: KAFF 012358Z AUTO 11008KT 10SM CLR 23/08 A3007 RMK AO2 SLP111 T02300079 10240 20200 53001
Conditions at: KAFF (USAF ACADEMY/COS, CO, US) observed 2358 UTC 01 September 2014
Temperature: 23.0°C (73°F)
Dewpoint: 7.9°C (46°F) [RH = 38%]
Pressure (altimeter): 30.07 inches Hg (1018.4 mb[Sea-level pressure: 1011.1 mb]
Winds: from the ESE (110 degrees) at 9 MPH (8 knots; 4.2 m/s)
Visibility: 10 or more miles (16+ km)
Ceiling: at least 12,000 feet AGL
Clouds: sky clear below 12,000 feet AGL
Weather: automated observation with no human augmentation;
there may or may not be significant weather present at this time

METAR text: KAFF 012258Z AUTO 10006KT 10SM CLR 23/08 A3006 RMK AO2 SLP107 T02300077
Conditions at: KAFF (USAF ACADEMY/COS, CO, US) observed 2258 UTC 01 September 2014
Temperature: 23.0°C (73°F)
Dewpoint: 7.7°C (46°F) [RH = 37%]
Pressure (altimeter): 30.06 inches Hg (1018.0 mb[Sea-level pressure: 1010.7 mb]
Winds: from the E (100 degrees) at 7 MPH (6 knots; 3.1 m/s)
Visibility: 10 or more miles (16+ km)
Ceiling: at least 12,000 feet AGL
Clouds: sky clear below 12,000 feet AGL
Weather: automated observation with no human augmentation;
there may or may not be significant weather present at this time

METAR text: KAFF 012158Z AUTO 14005KT 10SM FEW120 23/08 A3006 RMK AO2 SLP102 T02320079
Conditions at: KAFF (USAF ACADEMY/COS, CO, US) observed 2158 UTC 01 September 2014
Temperature: 23.2°C (74°F)
Dewpoint: 7.9°C (46°F) [RH = 37%]
Pressure (altimeter): 30.06 inches Hg (1018.0 mb[Sea-level pressure: 1010.2 mb]
Winds: from the SE (140 degrees) at 6 MPH (5 knots; 2.6 m/s)
Visibility: 10 or more miles (16+ km)
Ceiling: at least 12,000 feet AGL
Clouds: few clouds at 12000 feet AGL
Weather: automated observation with no human augmentation;
there may or may not be significant weather present at this time

METAR text: KAFF 012058Z AUTO 00000KT 10SM FEW100 SCT150 SCT190 SCT210 22/07 A3007 RMK AO2 SLP106 T02190073 57011
Conditions at: KAFF (USAF ACADEMY/COS, CO, US) observed 2058 UTC 01 September 2014
Temperature: 21.9°C (71°F)
Dewpoint: 7.3°C (45°F) [RH = 39%]
Pressure (altimeter): 30.07 inches Hg (1018.4 mb[Sea-level pressure: 1010.6 mb]
Winds: calm
Visibility: 10 or more miles (16+ km)
Ceiling: at least 12,000 feet AGL
Clouds: few clouds at 10000 feet AGL
scattered clouds at 15000 feet AGL
scattered clouds at 19000 feet AGL
scattered clouds at 21000 feet AGL
Weather: automated observation with no human augmentation;
there may or may not be significant weather present at this time

METAR text: KAFF 011958Z AUTO 13010KT 10SM FEW110 22/09 A3009 RMK AO2 SLP118 T02210086
Conditions at: KAFF (USAF ACADEMY/COS, CO, US) observed 1958 UTC 01 September 2014
Temperature: 22.1°C (72°F)
Dewpoint: 8.6°C (47°F) [RH = 42%]
Pressure (altimeter): 30.09 inches Hg (1019.0 mb[Sea-level pressure: 1011.8 mb]
Winds: from the SE (130 degrees) at 12 MPH (10 knots; 5.2 m/s)
Visibility: 10 or more miles (16+ km)
Ceiling: at least 12,000 feet AGL
Clouds: few clouds at 11000 feet AGL
Weather: automated observation with no human augmentation;
there may or may not be significant weather present at this time

METAR text: KAFF 011858Z AUTO 13011G16KT 10SM CLR 22/09 A3009 RMK AO2 SLP118 T02160086
Conditions at: KAFF (USAF ACADEMY/COS, CO, US) observed 1858 UTC 01 September 2014
Temperature: 21.6°C (71°F)
Dewpoint: 8.6°C (47°F) [RH = 43%]
Pressure (altimeter): 30.09 inches Hg (1019.0 mb[Sea-level pressure: 1011.8 mb]
Winds: from the SE (130 degrees) at 13 MPH (11 knots; 5.7 m/sgusting to 18 MPH (16 knots; 8.3 m/s)
Visibility: 10 or more miles (16+ km)
Ceiling: at least 12,000 feet AGL
Clouds: sky clear below 12,000 feet AGL
Weather: automated observation with no human augmentation;
there may or may not be significant weather present at this time

METAR text: KAFF 011758Z AUTO 15014KT 10SM CLR 20/09 A3011 RMK AO2 SLP130 T02020088 10202 20074 58010
Conditions at: KAFF (USAF ACADEMY/COS, CO, US) observed 1758 UTC 01 September 2014
Temperature: 20.2°C (68°F)
Dewpoint: 8.8°C (48°F) [RH = 48%]
Pressure (altimeter): 30.11 inches Hg (1019.7 mb[Sea-level pressure: 1013.0 mb]
Winds: from the SSE (150 degrees) at 16 MPH (14 knots; 7.3 m/s)
Visibility: 10 or more miles (16+ km)
Ceiling: at least 12,000 feet AGL
Clouds: sky clear below 12,000 feet AGL
Weather: automated observation with no human augmentation;
there may or may not be significant weather present at this time

METAR text: KAFF 011658Z AUTO 15011KT 110V180 10SM CLR 19/09 A3013 RMK AO2 SLP137 T01850087
Conditions at: KAFF (USAF ACADEMY/COS, CO, US) observed 1658 UTC 01 September 2014
Temperature: 18.5°C (65°F)
Dewpoint: 8.7°C (48°F) [RH = 53%]
Pressure (altimeter): 30.13 inches Hg (1020.4 mb[Sea-level pressure: 1013.7 mb]
Winds: from the SSE (150 degrees) at 13 MPH (11 knots; 5.7 m/s)
Visibility: 10 or more miles (16+ km)
Ceiling: at least 12,000 feet AGL
Clouds: sky clear below 12,000 feet AGL
Weather: automated observation with no human augmentation;
there may or may not be significant weather present at this time